Time;durP1;ratioP1;P1;durP2;ratioP2;P2;SDS_P1;SDS_P2;PMS_P1;PMS_P2;Temp;Humidity;BMP_temperature;BMP_pressure;BME280_temperature;BME280_humidity;BME280_pressure;Samples;Min_cycle;Max_cycle;Signal;HPM_P1;HPM_P2
2022/08/12 00:42:53;;;;;;;9.73;8.15;;;17.30;99.90;;;;;;5095677;28;20118;-62
2022/08/12 00:45:19;;;;;;;11.18;8.23;;;17.30;99.90;;;;;;5095630;28;20043;-62
2022/08/12 00:47:46;;;;;;;12.10;9.05;;;17.30;99.90;;;;;;5113707;28;20054;-62
2022/08/12 00:50:17;;;;;;;17.08;8.50;;;17.20;99.90;;;;;;5113798;28;20118;-62
2022/08/12 00:52:48;;;;;;;11.07;8.50;;;17.20;99.90;;;;;;5095763;28;20043;-62
2022/08/12 00:55:16;;;;;;;11.23;8.63;;;17.10;99.90;;;;;;5095523;28;20048;-62
2022/08/12 00:57:48;;;;;;;9.27;8.25;;;17.10;99.90;;;;;;5113640;28;20365;-62
2022/08/12 01:00:21;;;;;;;10.82;8.05;;;17.10;99.90;;;;;;5113552;28;20480;-62
2022/08/12 01:02:51;;;;;;;12.70;8.70;;;17.00;99.90;;;;;;5095488;28;20051;-62
2022/08/12 01:13:46;;;;;;;9.13;7.28;;;16.80;99.90;;;;;;5095263;28;20105;-62
2022/08/12 01:16:21;;;;;;;9.50;8.05;;;16.80;99.90;;;;;;5095055;28;20043;-62
2022/08/12 01:18:50;;;;;;;11.30;8.25;;;16.80;99.90;;;;;;5095140;28;20078;-62
2022/08/12 01:21:25;;;;;;;9.98;8.30;;;16.70;99.90;;;;;;5113307;28;20027;-62
2022/08/12 01:24:09;;;;;;;12.32;8.07;;;16.70;99.90;;;;;;5113519;28;20387;-62
2022/08/12 01:26:39;;;;;;;9.70;7.97;;;16.70;99.90;;;;;;5095190;28;20051;-63
2022/08/12 01:29:06;;;;;;;10.02;7.55;;;16.60;99.90;;;;;;5078227;28;20128;-62
2022/08/12 01:31:36;;;;;;;10.30;8.30;;;16.60;99.90;;;;;;5078112;28;20494;-62
2022/08/12 01:34:11;;;;;;;9.60;8.60;;;16.60;99.90;;;;;;5095025;28;20053;-62
2022/08/12 01:36:51;;;;;;;10.68;8.27;;;16.60;99.90;;;;;;5075818;28;20043;-62
2022/08/12 01:39:20;;;;;;;9.10;8.20;;;16.60;99.90;;;;;;5094858;28;20040;-62
2022/08/12 01:41:52;;;;;;;11.27;8.75;;;16.50;99.90;;;;;;5078074;28;20036;-62
2022/08/12 01:44:20;;;;;;;10.05;8.50;;;16.50;99.90;;;;;;5094758;28;20036;-62
2022/08/12 01:47:10;;;;;;;11.30;9.32;;;16.50;99.90;;;;;;5113338;28;20039;-62
2022/08/12 01:49:39;;;;;;;;;;;16.50;99.90;;;;;;5113448;28;20054;-62
2022/08/12 01:52:06;;;;;;;10.25;8.80;;;16.40;99.90;;;;;;5094756;28;19923;-63
2022/08/12 01:54:44;;;;;;;11.15;9.07;;;16.40;99.90;;;;;;5094778;28;20040;-62
2022/08/12 01:57:30;;;;;;;16.08;9.93;;;16.40;99.90;;;;;;5077848;28;20109;-62
2022/08/12 02:00:03;;;;;;;11.88;9.80;;;16.40;99.90;;;;;;5095024;28;20035;-62
2022/08/12 02:02:29;;;;;;;13.40;10.23;;;16.40;99.90;;;;;;5094766;28;20133;-62
2022/08/12 02:14:05;;;;;;;13.02;10.95;;;16.30;99.90;;;;;;5074326;28;20051;-62
2022/08/12 02:17:08;;;;;;;13.45;11.60;;;16.20;99.90;;;;;;5074559;28;20098;-62
2022/08/12 02:19:45;;;;;;;13.60;11.75;;;16.20;99.90;;;;;;5078053;28;20038;-62
2022/08/12 02:22:36;;;;;;;16.02;11.57;;;16.10;99.90;;;;;;5096397;28;20043;-62
2022/08/12 02:25:11;;;;;;;13.57;11.77;;;16.10;99.90;;;;;;5078025;28;20091;-62
2022/08/12 02:27:41;;;;;;;14.88;12.23;;;16.10;99.90;;;;;;5061366;28;20136;-62
2022/08/12 02:30:08;;;;;;;13.77;10.80;;;16.00;99.90;;;;;;5061520;28;20040;-62
2022/08/12 02:32:41;;;;;;;15.20;12.23;;;16.00;99.90;;;;;;5077925;28;20127;-62
2022/08/12 02:35:18;;;;;;;19.42;12.80;;;15.90;99.90;;;;;;5095976;28;20040;-62
2022/08/12 02:37:48;;;;;;;14.93;12.27;;;15.90;99.90;;;;;;5075578;28;20044;-62
2022/08/12 02:40:16;;;;;;;15.07;12.40;;;15.80;99.90;;;;;;5077848;28;20089;-62
2022/08/12 02:43:11;;;;;;;16.77;13.20;;;15.80;99.90;;;;;;5077752;28;20044;-62
2022/08/12 02:46:05;;;;;;;14.35;12.15;;;15.80;99.90;;;;;;5078024;28;20036;-62
2022/08/12 02:48:36;;;;;;;17.05;13.60;;;15.70;99.90;;;;;;5077899;28;20102;-63
2022/08/12 02:51:08;;;;;;;19.60;13.45;;;15.80;99.90;;;;;;5095782;28;20500;-62
2022/08/12 02:53:36;;;;;;;16.40;14.05;;;15.70;99.90;;;;;;5077816;28;20046;-62
2022/08/12 02:56:04;;;;;;;17.27;14.40;;;15.70;99.90;;;;;;5060940;28;20089;-62
2022/08/12 02:58:34;;;;;;;17.92;14.80;;;15.70;99.90;;;;;;5077415;28;20101;-62
2022/08/12 03:01:03;;;;;;;17.33;14.68;;;15.70;99.90;;;;;;5060771;28;20469;-62
2022/08/12 03:03:33;;;;;;;16.52;13.25;;;15.70;99.90;;;;;;5076620;28;20036;-62
2022/08/12 03:06:02;;;;;;;16.23;14.52;;;15.70;99.90;;;;;;5092077;28;20442;-62
2022/08/12 03:08:32;;;;;;;16.15;14.35;;;15.70;99.90;;;;;;5080190;28;20059;-62
2022/08/12 03:11:13;;;;;;;19.25;16.25;;;15.70;99.90;;;;;;5096666;28;20042;-62
2022/08/12 03:13:45;;;;;;;16.50;14.77;;;15.60;99.90;;;;;;5114742;28;20035;-62
2022/08/12 03:16:13;;;;;;;18.52;16.30;;;15.60;99.90;;;;;;5114600;28;20044;-62
2022/08/12 03:18:43;;;;;;;22.27;16.73;;;15.60;99.90;;;;;;5096448;28;20035;-62
2022/08/12 03:21:12;;;;;;;22.23;16.25;;;15.60;99.90;;;;;;5113692;28;20058;-62
2022/08/12 03:23:41;;;;;;;19.05;16.38;;;15.60;99.90;;;;;;5114747;28;20032;-62
2022/08/12 03:26:07;;;;;;;19.52;16.73;;;15.60;99.90;;;;;;5114647;28;20152;-62
2022/08/12 03:28:50;;;;;;;18.30;16.00;;;15.60;99.90;;;;;;5113188;28;20079;-62
2022/08/12 03:31:23;;;;;;;17.83;15.93;;;15.50;99.90;;;;;;5113949;28;20039;-62
2022/08/12 03:33:50;;;;;;;20.75;17.05;;;15.50;99.90;;;;;;5114574;28;20046;-62
2022/08/12 03:36:19;;;;;;;18.27;16.05;;;15.50;99.90;;;;;;5112277;28;20062;-62
2022/08/12 03:39:18;;;;;;;23.17;16.85;;;15.50;99.90;;;;;;5113124;28;20039;-62
2022/08/12 03:41:50;;;;;;;20.77;16.58;;;15.40;99.90;;;;;;5113105;28;20503;-62
2022/08/12 04:01:05;;;;;;;21.88;18.90;;;15.40;99.90;;;;;;5113775;28;20044;-62
2022/08/12 04:03:51;;;;;;;24.40;18.85;;;15.40;99.90;;;;;;5095580;28;20548;-62
2022/08/12 04:06:25;;;;;;;23.20;19.33;;;15.40;99.90;;;;;;5110158;28;20147;-62
2022/08/12 04:08:56;;;;;;;20.70;18.48;;;15.40;99.90;;;;;;5113697;28;20059;-62
2022/08/12 04:14:19;;;;;;;21.87;18.80;;;15.40;99.90;;;;;;5113576;28;20047;-62
2022/08/12 04:16:47;;;;;;;22.83;18.88;;;15.50;99.90;;;;;;5095239;28;20312;-62
2022/08/12 04:19:14;;;;;;;22.00;18.15;;;15.50;99.90;;;;;;5112445;28;20036;-63
2022/08/12 04:21:41;;;;;;;23.08;18.02;;;15.50;99.90;;;;;;5113606;28;20035;-63
2022/08/12 04:24:08;;;;;;;22.40;19.30;;;15.50;99.90;;;;;;5112079;28;20495;-62
2022/08/12 04:26:34;;;;;;;23.33;18.77;;;15.50;99.90;;;;;;5095095;28;20052;-63
2022/08/12 04:29:01;;;;;;;25.58;19.40;;;15.60;99.90;;;;;;5111941;28;20035;-62
2022/08/12 04:31:34;;;;;;;24.80;18.40;;;15.60;99.90;;;;;;5113462;28;20042;-63
2022/08/12 04:34:01;;;;;;;24.70;17.75;;;15.60;99.90;;;;;;5095192;28;20035;-63
2022/08/12 04:36:28;;;;;;;24.00;18.58;;;15.60;99.90;;;;;;5109570;28;20048;-63
2022/08/12 04:38:55;;;;;;;20.05;17.33;;;15.60;99.90;;;;;;5112068;28;20035;-63
2022/08/12 04:41:21;;;;;;;20.23;15.70;;;15.60;99.90;;;;;;5112973;28;20038;-62
2022/08/12 04:43:47;;;;;;;19.85;16.98;;;15.60;99.90;;;;;;5111712;28;20032;-62
2022/08/12 04:46:14;;;;;;;20.63;16.27;;;15.60;99.90;;;;;;5113198;28;20124;-63
2022/08/12 04:48:40;;;;;;;20.00;16.92;;;15.60;99.90;;;;;;5113238;28;20388;-62
2022/08/12 04:51:06;;;;;;;21.98;16.83;;;15.50;99.90;;;;;;5094830;28;20044;-62
2022/08/12 04:53:32;;;;;;;23.38;17.30;;;15.50;99.90;;;;;;5077849;28;20043;-63
2022/08/12 04:56:01;;;;;;;18.95;15.35;;;15.60;99.90;;;;;;5112717;28;20039;-62
2022/08/12 04:58:27;;;;;;;22.07;16.23;;;15.60;99.90;;;;;;5094787;28;20043;-63
2022/08/12 05:00:54;;;;;;;20.38;16.92;;;15.60;99.90;;;;;;5111652;28;20038;-63
2022/08/12 05:03:20;;;;;;;19.25;15.98;;;15.70;99.90;;;;;;5111435;28;20123;-63
2022/08/12 05:05:45;;;;;;;19.15;17.05;;;15.70;99.90;;;;;;5109257;28;20556;-62
2022/08/12 05:08:17;;;;;;;22.60;17.48;;;15.80;99.90;;;;;;5111380;28;20035;-63
2022/08/12 05:10:45;;;;;;;20.00;16.50;;;15.80;99.90;;;;;;5111362;28;20040;-63
2022/08/12 05:13:24;;;;;;;20.10;16.48;;;15.80;99.90;;;;;;5111590;28;20075;-63
2022/08/12 05:15:50;;;;;;;20.48;17.55;;;15.90;99.90;;;;;;5111485;28;20100;-63
2022/08/12 05:18:16;;;;;;;20.38;15.52;;;15.90;99.90;;;;;;5112625;28;20042;-63
2022/08/12 05:20:42;;;;;;;22.45;16.17;;;15.90;99.90;;;;;;5111403;28;20078;-63
2022/08/12 05:23:14;;;;;;;18.92;16.63;;;16.10;99.90;;;;;;5112463;28;20035;-63
2022/08/12 05:25:44;;;;;;;21.15;17.13;;;16.10;99.90;;;;;;5111210;28;20122;-63
2022/08/12 05:28:11;;;;;;;19.30;16.05;;;16.20;99.90;;;;;;5111053;28;20075;-63
2022/08/12 05:30:38;;;;;;;17.25;14.73;;;16.20;99.90;;;;;;5111039;28;20040;-63
2022/08/12 05:33:05;;;;;;;19.33;15.25;;;16.30;99.90;;;;;;5112297;28;20054;-63
2022/08/12 05:35:35;;;;;;;24.67;15.38;;;16.40;99.90;;;;;;5112420;28;20043;-63
2022/08/12 05:41:05;;;;;;;16.13;13.00;;;16.60;99.90;;;;;;5111234;28;20047;-62
2022/08/12 05:43:33;;;;;;;15.20;12.63;;;16.70;99.90;;;;;;5094289;28;20043;-63
2022/08/12 05:45:59;;;;;;;16.58;14.27;;;16.80;99.90;;;;;;5112265;28;20093;-63
2022/08/12 05:48:25;;;;;;;15.73;13.40;;;16.90;99.90;;;;;;5112116;28;20430;-63
2022/08/12 05:50:51;;;;;;;14.32;10.45;;;17.00;99.90;;;;;;5077147;28;20042;-63
2022/08/12 05:53:18;;;;;;;13.85;10.57;;;17.10;99.90;;;;;;5095693;28;20032;-62
2022/08/12 05:55:44;;;;;;;12.35;10.30;;;17.20;99.90;;;;;;5081247;28;20084;-63
2022/08/12 05:58:10;;;;;;;14.35;10.90;;;17.30;99.90;;;;;;5081007;28;20035;-62
2022/08/12 06:00:36;;;;;;;16.08;11.82;;;17.40;99.90;;;;;;5097913;28;20514;-62
2022/08/12 06:03:04;;;;;;;15.10;11.32;;;17.50;99.90;;;;;;5098076;28;20048;-62
2022/08/12 06:05:36;;;;;;;14.27;10.38;;;17.60;99.90;;;;;;5097893;28;20040;-63
2022/08/12 06:08:06;;;;;;;10.32;7.40;;;17.80;99.90;;;;;;5079733;28;20040;-64
2022/08/12 06:10:34;;;;;;;8.70;6.53;;;17.90;99.90;;;;;;5116027;28;20044;-63
2022/08/12 06:13:01;;;;;;;8.50;6.25;;;18.10;99.90;;;;;;5097704;28;20036;-63
2022/08/12 06:15:28;;;;;;;8.50;6.07;;;18.30;99.90;;;;;;5097239;28;20122;-64
2022/08/12 06:18:06;;;;;;;9.10;6.63;;;18.50;99.90;;;;;;5097490;28;20100;-63
2022/08/12 06:20:32;;;;;;;7.35;6.32;;;18.70;99.90;;;;;;5097799;28;20039;-63
2022/08/12 06:22:58;;;;;;;8.50;6.03;;;18.90;99.90;;;;;;5097642;28;20058;-63
2022/08/12 06:25:27;;;;;;;8.65;5.88;;;19.10;99.90;;;;;;5097315;28;20495;-63
2022/08/12 06:27:58;;;;;;;6.63;5.47;;;19.30;99.90;;;;;;5097357;28;20058;-64
2022/08/12 06:30:25;;;;;;;6.53;5.38;;;19.50;99.90;;;;;;5097641;28;20535;-63
2022/08/12 06:32:51;;;;;;;9.25;5.93;;;19.80;99.90;;;;;;5097445;28;20048;-63
2022/08/12 06:35:18;;;;;;;6.72;5.45;;;20.00;99.90;;;;;;5097026;28;20483;-63
2022/08/12 06:37:45;;;;;;;7.47;5.10;;;20.30;99.90;;;;;;5113043;28;20040;-63
2022/08/12 06:40:12;;;;;;;8.93;5.57;;;20.60;99.90;;;;;;5097252;28;20051;-63
2022/08/12 06:42:50;;;;;;;6.78;5.13;;;20.90;99.90;;;;;;5097103;28;20391;-63
2022/08/12 06:45:17;;;;;;;7.20;4.95;;;21.20;99.90;;;;;;5097347;28;20046;-64
2022/08/12 06:47:44;;;;;;;6.45;4.85;;;21.50;99.90;;;;;;5115490;28;20073;-63
2022/08/12 06:50:15;;;;;;;5.32;4.32;;;21.70;99.90;;;;;;5097038;28;20085;-63
2022/08/12 06:52:44;;;;;;;7.25;4.80;;;22.00;99.90;;;;;;5115252;28;20047;-63
2022/08/12 06:55:24;;;;;;;5.47;4.00;;;22.20;99.90;;;;;;5093367;28;20039;-63
2022/08/12 06:58:00;;;;;;;6.05;4.28;;;22.50;99.90;;;;;;5097094;28;20118;-63
2022/08/12 07:00:29;;;;;;;7.13;4.60;;;22.80;99.90;;;;;;5079951;28;20035;-63
2022/08/12 07:02:56;;;;;;;6.07;4.18;;;23.00;99.90;;;;;;5115106;28;20097;-63
2022/08/12 07:05:23;;;;;;;10.20;4.80;;;23.20;99.90;;;;;;5095662;28;20039;-63
2022/08/12 07:08:07;;;;;;;5.07;3.25;;;23.30;99.90;;;;;;5112407;28;20050;-64
2022/08/12 07:10:33;;;;;;;7.22;4.10;;;23.40;99.90;;;;;;5080019;28;20048;-64
2022/08/12 07:13:01;;;;;;;5.35;3.80;;;23.60;99.90;;;;;;5096352;28;20044;-63
2022/08/12 07:15:29;;;;;;;4.75;3.30;;;23.70;99.90;;;;;;5114815;28;20047;-64
2022/08/12 07:20:34;;;;;;;5.00;3.20;;;24.00;99.90;;;;;;5096452;28;20123;-63
2022/08/12 07:23:04;;;;;;;5.60;3.67;;;24.10;99.90;;;;;;5096094;28;20046;-63
2022/08/12 07:25:33;;;;;;;4.63;3.20;;;24.40;99.90;;;;;;5114477;28;20100;-63
2022/08/12 07:28:05;;;;;;;5.55;3.35;;;24.60;99.90;;;;;;5114561;28;20043;-63
2022/08/12 07:30:35;;;;;;;4.45;3.50;;;24.60;99.90;;;;;;5096298;28;20071;-64
2022/08/12 07:33:03;;;;;;;6.97;2.95;;;24.80;99.90;;;;;;5096275;28;20046;-63
2022/08/12 07:35:33;;;;;;;6.10;3.10;;;24.80;99.90;;;;;;5079108;28;20077;-64
2022/08/12 07:37:59;;;;;;;4.00;2.92;;;24.80;99.90;;;;;;5093600;28;20479;-64
2022/08/12 07:40:26;;;;;;;4.15;3.00;;;24.80;99.90;;;;;;5096065;28;20032;-63
2022/08/12 07:42:52;;;;;;;6.70;3.40;;;24.90;99.90;;;;;;5114360;28;20404;-62
2022/08/12 07:45:19;;;;;;;4.93;2.78;;;25.00;99.90;;;;;;5095910;28;20078;-62
2022/08/12 07:47:47;;;;;;;3.72;2.70;;;25.20;99.90;;;;;;5095794;28;20131;-62
2022/08/12 07:50:16;;;;;;;5.95;2.70;;;25.40;99.90;;;;;;5078962;28;20035;-62
2022/08/12 07:52:45;;;;;;;5.05;2.80;;;25.50;99.90;;;;;;5095479;28;20040;-63
2022/08/12 07:55:13;;;;;;;5.70;2.83;;;25.70;99.90;;;;;;5113900;28;20512;-63
2022/08/12 07:57:52;;;;;;;4.68;2.63;;;26.00;99.90;;;;;;5095405;28;20044;-63
2022/08/12 08:00:18;;;;;;;4.55;2.63;;;26.20;99.90;;;;;;5095924;28;20087;-63
2022/08/12 08:02:44;;;;;;;6.00;2.50;;;26.50;99.90;;;;;;5114045;28;20450;-63
2022/08/12 08:05:10;;;;;;;4.47;2.85;;;26.60;99.90;;;;;;5095596;28;20039;-63
2022/08/12 08:07:36;;;;;;;3.90;2.88;;;26.70;99.90;;;;;;5092748;28;20043;-63
2022/08/12 08:10:07;;;;;;;4.43;2.35;;;27.00;99.90;;;;;;5095203;28;20051;-63
2022/08/12 08:15:19;;;;;;;4.18;2.58;;;27.60;99.60;;;;;;5095010;28;20488;-63
2022/08/12 08:17:58;;;;;;;5.47;2.47;;;27.90;97.90;;;;;;5113395;28;20488;-63
2022/08/12 08:20:29;;;;;;;4.93;1.90;;;28.10;97.20;;;;;;5078688;28;20381;-63
2022/08/12 08:22:57;;;;;;;5.50;2.55;;;28.30;96.50;;;;;;5078173;28;20044;-63
2022/08/12 08:25:30;;;;;;;6.32;2.60;;;28.60;94.90;;;;;;5094834;28;20039;-63
2022/08/12 08:28:01;;;;;;;6.20;2.47;;;28.80;93.50;;;;;;5113541;28;20118;-63
2022/08/12 08:30:29;;;;;;;4.45;2.33;;;28.90;92.90;;;;;;5078175;28;20050;-63
2022/08/12 08:32:55;;;;;;;4.43;2.72;;;29.10;91.70;;;;;;5113287;28;20031;-63
2022/08/12 08:35:23;;;;;;;3.22;2.15;;;29.30;90.30;;;;;;5091579;28;20122;-63
2022/08/12 08:37:50;;;;;;;5.90;2.10;;;29.40;91.10;;;;;;5092088;28;20432;-63
2022/08/12 08:43:03;;;;;;;7.15;2.40;;;29.70;87.20;;;;;;5095091;28;20048;-63
2022/08/12 08:45:30;;;;;;;5.18;2.55;;;29.90;87.40;;;;;;5095114;28;20040;-63
2022/08/12 08:47:56;;;;;;;3.97;2.25;;;30.10;85.80;;;;;;5094655;28;20044;-63
2022/08/12 08:50:22;;;;;;;4.72;2.10;;;30.20;82.60;;;;;;5094703;28;20118;-63
2022/08/12 08:52:48;;;;;;;4.10;1.98;;;30.50;84.30;;;;;;5077453;28;20126;-63
2022/08/12 08:55:15;;;;;;;5.25;2.10;;;30.60;81.50;;;;;;5094613;28;20047;-63
2022/08/12 08:57:49;;;;;;;6.97;2.10;;;30.90;77.20;;;;;;5077506;28;20055;-63
2022/08/12 09:00:17;;;;;;;3.35;1.98;;;31.20;76.90;;;;;;5094218;28;20082;-62
2022/08/12 09:02:45;;;;;;;4.43;1.80;;;31.30;76.70;;;;;;5112919;28;20032;-63
2022/08/12 09:05:11;;;;;;;3.03;1.95;;;31.50;75.50;;;;;;5094560;28;20043;-63
2022/08/12 09:07:45;;;;;;;2.85;1.92;;;31.70;75.20;;;;;;5091622;28;20513;-62
2022/08/12 09:10:15;;;;;;;5.30;2.35;;;31.90;69.70;;;;;;5077323;28;20059;-63
2022/08/12 09:15:29;;;;;;;3.78;2.30;;;32.00;69.20;;;;;;5094596;28;20438;-63
2022/08/12 09:17:57;;;;;;;4.75;2.05;;;32.10;66.70;;;;;;5076976;28;20288;-62
2022/08/12 09:20:28;;;;;;;3.10;2.10;;;32.10;68.00;;;;;;5094204;28;20040;-62
2022/08/12 09:22:56;;;;;;;4.50;1.90;;;32.10;64.40;;;;;;5112177;28;20078;-62
2022/08/12 09:25:26;;;;;;;5.68;2.17;;;32.20;65.90;;;;;;5112343;28;20039;-63
2022/08/12 09:27:53;;;;;;;4.65;1.92;;;32.40;65.30;;;;;;5093554;28;20130;-63
2022/08/12 09:30:20;;;;;;;6.28;2.78;;;32.60;63.20;;;;;;5094212;28;20085;-62
2022/08/12 09:32:51;;;;;;;4.60;2.28;;;32.80;62.00;;;;;;5112352;28;20048;-61
2022/08/12 09:35:24;;;;;;;4.95;2.05;;;33.10;63.50;;;;;;5112434;28;20044;-62
2022/08/12 09:37:53;;;;;;;3.42;2.03;;;33.30;63.80;;;;;;5110227;28;20082;-63
2022/08/12 09:40:19;;;;;;;3.63;2.10;;;33.50;60.40;;;;;;5112378;28;20041;-62
2022/08/12 09:45:32;;;;;;;3.97;2.20;;;33.70;58.40;;;;;;5093636;28;20050;-62
2022/08/12 09:48:02;;;;;;;3.20;1.65;;;33.80;57.60;;;;;;5076786;28;20122;-62
2022/08/12 09:50:31;;;;;;;5.30;1.88;;;33.90;57.80;;;;;;5093879;28;20051;-62
2022/08/12 09:53:15;;;;;;;4.88;1.92;;;34.00;59.50;;;;;;5094065;28;20467;-63
2022/08/12 09:55:47;;;;;;;6.88;1.83;;;34.10;58.10;;;;;;5077569;28;20032;-62
2022/08/12 09:58:17;;;;;;;7.15;2.22;;;34.20;57.60;;;;;;5093822;28;20369;-63
2022/08/12 10:00:45;;;;;;;3.17;2.05;;;34.40;58.70;;;;;;5112027;28;20127;-63
2022/08/12 10:03:14;;;;;;;4.45;2.25;;;34.50;56.10;;;;;;5112067;28;20126;-63
2022/08/12 10:05:45;;;;;;;3.58;1.70;;;34.60;54.60;;;;;;5092761;28;20118;-65
2022/08/12 10:08:14;;;;;;;5.85;2.10;;;34.70;51.00;;;;;;5111454;28;20552;-64
2022/08/12 10:13:40;;;;;;;4.35;1.80;;;34.80;55.30;;;;;;5093534;28;20496;-64
2022/08/12 10:16:27;;;;;;;5.18;1.90;;;34.90;52.40;;;;;;5093858;28;20078;-64
2022/08/12 10:18:58;;;;;;;2.72;1.73;;;35.00;49.60;;;;;;5093922;28;20047;-64
2022/08/12 10:21:35;;;;;;;9.10;1.95;;;35.10;48.40;;;;;;5111910;28;20042;-64
2022/08/12 10:24:07;;;;;;;3.15;1.48;;;35.10;50.30;;;;;;5093498;28;20065;-65
2022/08/12 10:32:03;;;;;;;4.50;1.48;;;35.40;47.90;;;;;;5111730;28;20054;-64
2022/08/12 10:34:29;;;;;;;2.88;1.90;;;35.40;45.70;;;;;;5111558;28;20488;-64
2022/08/12 10:37:00;;;;;;;3.80;1.60;;;35.30;45.30;;;;;;5074200;28;20050;-64
2022/08/12 10:39:33;;;;;;;3.63;1.60;;;35.40;44.60;;;;;;5090586;28;20047;-64
2022/08/12 10:44:48;;;;;;;4.70;1.40;;;35.70;47.10;;;;;;5115072;28;20055;-65
2022/08/12 10:47:20;;;;;;;5.05;1.80;;;35.80;44.60;;;;;;5096866;28;20044;-67
2022/08/12 10:49:48;;;;;;;4.40;1.58;;;35.60;43.10;;;;;;5096858;28;20125;-65
2022/08/12 10:52:14;;;;;;;6.00;1.92;;;35.30;44.40;;;;;;5097114;28;20104;-65
2022/08/12 10:54:41;;;;;;;5.68;1.60;;;35.30;43.90;;;;;;5115152;28;20035;-67
2022/08/12 10:57:08;;;;;;;2.42;1.55;;;35.30;44.30;;;;;;5096568;28;20047;-65
2022/08/12 10:59:34;;;;;;;6.75;2.60;;;35.20;43.80;;;;;;5096749;28;20046;-66
2022/08/12 11:02:00;;;;;;;3.95;1.63;;;35.10;44.00;;;;;;5096934;28;20130;-66
2022/08/12 11:04:29;;;;;;;4.03;1.67;;;35.10;44.50;;;;;;5096680;28;20032;-65
2022/08/12 11:06:56;;;;;;;5.97;1.50;;;35.20;44.50;;;;;;5077090;28;20039;-65
2022/08/12 11:09:26;;;;;;;4.63;1.90;;;35.30;43.90;;;;;;5105204;28;20063;-66
2022/08/12 11:11:54;;;;;;;5.05;1.85;;;35.40;43.20;;;;;;5093101;28;20052;-64
2022/08/12 11:14:31;;;;;;;4.30;1.67;;;35.40;43.30;;;;;;5094585;28;20439;-64
2022/08/12 11:17:06;;;;;;;3.33;1.75;;;35.50;44.00;;;;;;5076120;28;20626;-64
2022/08/12 11:19:34;;;;;;;4.32;1.85;;;35.50;42.30;;;;;;5094396;28;20067;-65
2022/08/12 11:22:00;;;;;;;5.68;1.70;;;35.50;41.40;;;;;;5093257;28;20036;-64
2022/08/12 11:24:27;;;;;;;5.25;1.77;;;35.50;42.40;;;;;;5093049;28;20126;-64
2022/08/12 11:26:54;;;;;;;3.30;1.70;;;35.40;44.70;;;;;;5092748;28;20047;-64
2022/08/12 11:29:22;;;;;;;4.03;1.80;;;35.60;45.20;;;;;;5092834;28;20500;-64
2022/08/12 11:31:48;;;;;;;4.50;1.48;;;35.80;45.10;;;;;;5094030;28;20507;-64
2022/08/12 11:34:18;;;;;;;3.67;1.77;;;35.90;43.40;;;;;;5112042;28;20495;-65
2022/08/12 11:36:59;;;;;;;3.08;1.58;;;35.70;41.10;;;;;;5093493;28;20043;-64
2022/08/12 11:39:25;;;;;;;4.63;1.90;;;35.50;41.20;;;;;;5114509;28;20116;-65
2022/08/12 11:41:51;;;;;;;3.67;1.60;;;35.40;43.20;;;;;;5079527;28;20157;-64
2022/08/12 11:44:17;;;;;;;2.70;1.30;;;35.40;43.70;;;;;;5114023;28;20543;-66
2022/08/12 11:46:43;;;;;;;5.50;2.10;;;35.40;42.70;;;;;;5114106;28;20519;-66
2022/08/12 11:49:10;;;;;;;3.10;1.65;;;35.40;42.50;;;;;;5079091;28;20039;-67
2022/08/12 11:51:37;;;;;;;3.47;1.45;;;35.30;41.50;;;;;;5113272;28;20052;-65
2022/08/12 11:54:04;;;;;;;2.33;1.45;;;35.10;41.50;;;;;;5095646;28;20046;-65
2022/08/12 11:56:30;;;;;;;3.08;1.77;;;35.00;41.80;;;;;;5079026;28;20046;-64
2022/08/12 11:58:56;;;;;;;4.40;2.10;;;34.90;44.20;;;;;;5113816;28;20039;-66
2022/08/12 12:01:22;;;;;;;3.97;1.48;;;34.80;44.70;;;;;;5078688;28;20042;-64
2022/08/12 12:03:48;;;;;;;3.50;1.67;;;34.70;43.30;;;;;;5113712;28;20031;-64
2022/08/12 12:06:16;;;;;;;3.28;1.55;;;34.80;43.00;;;;;;5111179;28;20047;-64
2022/08/12 12:08:43;;;;;;;3.72;2.00;;;34.80;43.30;;;;;;5095511;28;20472;-65
2022/08/12 12:11:09;;;;;;;2.97;1.73;;;34.80;43.10;;;;;;5095362;28;20263;-64
2022/08/12 12:13:35;;;;;;;4.20;1.90;;;34.70;42.50;;;;;;5095334;28;20119;-65
2022/08/12 12:16:01;;;;;;;2.95;1.60;;;34.70;42.60;;;;;;5095280;28;20032;-64
2022/08/12 12:18:29;;;;;;;2.80;1.80;;;34.40;42.30;;;;;;5095008;28;20051;-64
2022/08/12 12:21:03;;;;;;;4.32;1.60;;;34.20;43.30;;;;;;5113454;28;20031;-64
2022/08/12 12:23:30;;;;;;;3.78;1.77;;;34.20;43.10;;;;;;5095111;28;20096;-64
2022/08/12 12:25:57;;;;;;;2.42;1.60;;;34.20;42.80;;;;;;5113371;28;20042;-64
2022/08/12 12:28:23;;;;;;;3.70;1.70;;;34.20;41.60;;;;;;5094977;28;20039;-63
2022/08/12 12:30:49;;;;;;;3.40;2.03;;;34.10;44.20;;;;;;5078410;28;20035;-64
2022/08/12 12:33:15;;;;;;;5.05;1.83;;;34.00;42.90;;;;;;5078085;28;20388;-64
2022/08/12 12:35:41;;;;;;;11.13;1.63;;;34.00;43.70;;;;;;5095124;28;20184;-63
2022/08/12 12:38:11;;;;;;;4.53;1.88;;;34.00;44.10;;;;;;5092726;28;20036;-64
2022/08/12 12:40:40;;;;;;;2.53;1.75;;;34.00;44.30;;;;;;5078105;28;20115;-64
2022/08/12 12:43:05;;;;;;;;;;;33.80;42.30;;;;;;5078361;28;20128;-64
2022/08/12 12:45:33;;;;;;;4.25;1.50;;;33.80;43.40;;;;;;5112995;28;19959;-65
2022/08/12 12:48:13;;;;;;;3.55;1.40;;;33.80;42.90;;;;;;5094923;28;20043;-63
2022/08/12 12:53:37;;;;;;;2.45;1.60;;;33.70;41.70;;;;;;5112786;28;20496;-64
2022/08/12 12:56:03;;;;;;;3.75;1.63;;;33.50;41.80;;;;;;5112766;28;20039;-64
2022/08/12 12:58:29;;;;;;;5.60;1.50;;;33.40;43.80;;;;;;5094338;28;20040;-64
2022/08/12 13:00:58;;;;;;;2.75;1.45;;;33.30;42.50;;;;;;5094645;28;20031;-63
2022/08/12 13:03:25;;;;;;;2.28;1.40;;;33.30;44.40;;;;;;5093776;28;20035;-63
2022/08/12 13:05:51;;;;;;;3.90;1.58;;;33.20;45.40;;;;;;5092439;28;20070;-63
2022/08/12 13:08:25;;;;;;;4.88;1.65;;;33.20;44.00;;;;;;5094176;28;20042;-64
2022/08/12 13:10:53;;;;;;;2.22;1.35;;;33.10;42.10;;;;;;5112470;28;20054;-64
2022/08/12 13:13:20;;;;;;;4.20;1.40;;;33.00;42.10;;;;;;5112854;28;20035;-64
2022/08/12 13:15:48;;;;;;;4.15;1.50;;;32.90;41.10;;;;;;5094338;28;20066;-65
2022/08/12 13:18:17;;;;;;;2.22;1.45;;;32.70;41.20;;;;;;5077279;28;20082;-64
2022/08/12 13:20:47;;;;;;;3.58;1.50;;;32.60;42.20;;;;;;5077618;28;20040;-64
2022/08/12 13:23:19;;;;;;;3.50;1.40;;;32.50;41.80;;;;;;5094292;28;20035;-65
2022/08/12 13:25:45;;;;;;;5.13;1.40;;;32.40;42.90;;;;;;5112353;28;20680;-65
2022/08/12 13:28:22;;;;;;;3.90;1.98;;;32.50;43.50;;;;;;5094392;28;20031;-64
2022/08/12 13:30:51;;;;;;;5.20;1.38;;;32.50;43.70;;;;;;5094327;28;20408;-65
2022/08/12 13:33:21;;;;;;;3.40;1.27;;;32.60;44.00;;;;;;5093873;28;20043;-65
2022/08/12 13:35:49;;;;;;;3.13;1.67;;;32.60;43.30;;;;;;5092693;28;20071;-65
2022/08/12 13:38:15;;;;;;;3.08;1.77;;;32.50;42.90;;;;;;5111519;28;20035;-64
2022/08/12 13:40:42;;;;;;;3.97;1.42;;;32.40;42.70;;;;;;5093725;28;20067;-63
2022/08/12 13:43:14;;;;;;;4.03;1.27;;;32.30;43.70;;;;;;5112184;28;20459;-63
2022/08/12 13:45:40;;;;;;;2.88;1.73;;;32.30;44.30;;;;;;5094191;28;20446;-63
2022/08/12 13:48:06;;;;;;;5.00;1.40;;;32.30;44.30;;;;;;5112070;28;20436;-64
2022/08/12 13:50:35;;;;;;;4.35;1.50;;;32.30;44.90;;;;;;5094012;28;20062;-63
2022/08/12 13:53:15;;;;;;;6.47;1.67;;;32.20;45.20;;;;;;5093915;28;20109;-63
2022/08/12 13:55:46;;;;;;;3.60;1.52;;;32.10;45.40;;;;;;5111951;28;20043;-64
2022/08/12 13:58:17;;;;;;;3.80;1.80;;;32.00;45.30;;;;;;5093650;28;20096;-63
2022/08/12 14:00:49;;;;;;;4.50;1.88;;;31.90;45.80;;;;;;5093977;28;20048;-65
2022/08/12 14:03:19;;;;;;;3.22;1.48;;;31.90;44.80;;;;;;5094016;28;20142;-63
2022/08/12 14:05:46;;;;;;;4.13;1.73;;;31.90;44.30;;;;;;5092954;28;20127;-63
2022/08/12 14:08:14;;;;;;;5.35;1.50;;;32.00;44.50;;;;;;5092197;28;20097;-64
2022/08/12 14:10:52;;;;;;;4.10;1.40;;;32.00;43.40;;;;;;5093599;28;20039;-63
2022/08/12 14:13:26;;;;;;;5.97;2.17;;;32.10;42.40;;;;;;5093625;28;20082;-63
2022/08/12 14:16:01;;;;;;;3.13;1.70;;;32.10;43.90;;;;;;5097661;28;20035;-63
2022/08/12 14:18:32;;;;;;;2.88;1.40;;;32.10;43.20;;;;;;5097642;28;20051;-63
2022/08/12 14:21:11;;;;;;;2.58;1.75;;;32.20;44.40;;;;;;5115846;28;20050;-63
2022/08/12 14:23:46;;;;;;;4.55;1.73;;;32.10;44.90;;;;;;5097407;28;20044;-63
2022/08/12 14:26:16;;;;;;;4.53;1.90;;;32.30;45.20;;;;;;5115694;28;20031;-63
2022/08/12 14:28:43;;;;;;;3.33;1.80;;;32.70;45.00;;;;;;5097627;28;20092;-63
2022/08/12 14:31:11;;;;;;;2.67;1.73;;;32.80;43.00;;;;;;5097652;28;20074;-63
2022/08/12 14:33:39;;;;;;;3.67;1.95;;;33.10;43.80;;;;;;5097205;28;20077;-63
2022/08/12 14:36:13;;;;;;;3.55;1.60;;;33.50;42.80;;;;;;5095118;28;20087;-64
2022/08/12 14:38:43;;;;;;;4.20;2.00;;;33.80;41.70;;;;;;5115601;28;20046;-64
2022/08/12 14:41:14;;;;;;;4.05;1.70;;;34.20;43.20;;;;;;5097506;28;20043;-64
2022/08/12 14:43:42;;;;;;;6.10;1.70;;;34.30;43.50;;;;;;5097079;28;20043;-64